Onion Creek, California Weather observations

Data are for observation ending at time listed.
 Day   Time    Ave.   Ave.  Ave.  Vector   Max.   Stn.    Total    Solar   Ave.   Snow 
  of    of     Air    Rel.  Wind   Wind    Wind   Baro.  Precip.   Rad.    Soil   Depth
Year   Day     Temp.  Hum.  Speed  Dir.    Gust   Pres.                    Temp.       
2017   (PST)    F      %     mph   deg.    mph     mb.     in.     W/m2     F      in. 
---------------------------------------------------------------------------------------  
  35   20:40   32.8    94    2.3   246      8.1   829.3   18.35       0    32.9   999.0
  35   20:50   32.9    93    2.5   258     10.8   829.4   18.35       0    32.9   999.0
  35   21:00   32.8    93    0.9   239      4.5   829.5   18.35       0    32.8   999.0
  35   21:10   32.7    94    0.9   290      6.9   829.6   18.35       0    32.8   999.0
  35   21:20   32.6    94    1.3   250      3.9   829.6   18.35       0    32.8   999.0
  35   21:30   32.6    95    1.0   296      4.4   829.6   18.35       0    32.8   999.0
  35   21:40   32.4    94    0.6   237      3.3   829.6   18.35       0    32.8   999.0
  35   21:50   32.5    93    1.4   253      6.4   829.8   18.35       0    32.8   999.0
  35   22:00   32.5    93    1.0   221      4.0   829.7   18.35       0    32.8   999.0
  35   22:10   32.3    94    0.5   245      2.0   829.7   18.35       0    32.9   999.0
  35   22:20   32.3    94    0.5   233      1.8   829.8   18.33       0    32.9   999.0
  35   22:30   32.3    95    0.9   242      3.9   829.8   18.35       0    32.8   999.0
  35   22:40   32.4    94    0.8   145      4.5   829.8   18.35       0    32.8   999.0
  35   22:50   32.3    94    1.2   182      4.7   829.9   18.33       0    32.9   999.0
  35   23:00   32.4    93    1.3   210      5.6   830.0   18.35       0    32.9   999.0
  35   23:10   32.5    93    1.4   233      4.5   830.1   18.35       0    32.9   999.0
  35   23:20   32.4    93    1.6   238      5.0   830.0   18.35       0    32.9   999.0
  35   23:30   32.3    93    0.6   188      2.4   830.0   18.35       0    32.8   999.0
  35   23:40   32.2    94    1.1   162      2.3   829.9   18.35       0    32.9   999.0
  35   23:50   32.1    95    0.3   171      1.5   829.9   18.33       0    32.9   999.0
  36    0:00   32.0    96    0.4   171      1.5   829.7   18.33       0    32.9   999.0
  36    0:10   32.0    96    0.5   212      2.1   829.6   18.35       0    32.9   999.0
  36    0:20   31.8    96    0.4   255      2.6   829.5   18.35       0    32.9   999.0
  36    0:30   31.5    96    0.4   257      2.3   829.4   18.35       0    32.9   999.0
  36    0:40   31.1    95    0.2   347      0.8   829.3   18.35       0    32.9   999.0
  36    0:50   30.6    96    0.4   356      2.3   829.2   18.35       0    32.9   999.0
  36    1:00   30.2    96    0.1   286      0.8   829.0   18.35       0    32.9   999.0
  36    1:10   30.1    96    0.3   288      1.0   828.9   18.33       0    32.9   999.0
  36    1:20   30.1    97    1.0    40      2.7   828.8   18.35       0    32.9   999.0
  36    1:30   30.1    97    0.9    40      2.9   828.9   18.33       0    32.9   999.0
  36    1:40   30.1    97    0.9    65      2.5   828.9   18.35       0    32.9   999.0
  36    1:50   30.2    97    1.3    66      2.9   828.8   18.35       0    32.9   999.0
  36    2:00   30.0    97    0.8    50      2.7   828.6   18.35       0    32.9   999.0
  36    2:10   29.9    97    0.5    33      2.3   828.6   18.35       0    32.9   999.0
  36    2:20   29.9    97    0.9    36      2.6   828.6   18.35       0    32.9   999.0
  36    2:30   30.0    97    1.5    34      2.8   828.6   18.35       0    32.9   999.0
  36    2:40   30.0    97    1.2    40      3.1   828.5   18.35       0    32.9   999.0
  36    2:50   30.0    97    1.7    43      4.1   828.5   18.35       0    32.9   999.0
  36    3:00   29.9    97    1.2    51      3.1   828.7   18.35       0    32.9   999.0
  36    3:10   30.0    97    1.1    38      2.6   828.6   18.35       0    32.9   999.0
  36    3:20   29.9    97    1.3    35      2.4   828.3   18.35       0    32.9   999.0
  36    3:30   29.9    97    0.9    35      2.1   828.1   18.33       0    32.9   999.0
  36    3:40   29.9    97    1.1    23      2.6   827.9   18.35       0    32.9   999.0
  36    3:50   29.9    97    1.2    25      2.4   827.9   18.33       0    32.9   999.0
  36    4:00   29.8    97    1.0    34      2.6   827.8   18.35       0    32.9   999.0
  36    4:10   29.8    97    1.3    36      3.2   827.9   18.35       0    32.9   999.0
  36    4:20   29.8    97    1.4    35      2.3   827.9   18.35       0    32.9   999.0
  36    4:30   29.8    97    1.3    35      3.4   827.7   18.33       0    32.9   999.0
  36    4:40   29.7    97    1.0    33      2.3   827.7   18.35       0    32.9   999.0
  36    4:50   29.6    97    1.0    33      1.7   827.7   18.35       0    32.9   999.0
  36    5:00   29.5    97    1.2    32      3.1   827.6   18.33       0    32.9   999.0
  36    5:10   29.4    97    1.5    45      3.9   827.7   18.35       0    32.9   999.0
  36    5:20   29.4    97    1.7    36      3.1   827.4   18.35       0    32.9   999.0
  36    5:30   29.3    96    1.9    33      4.8   827.4   18.33       0    32.9   999.0
  36    5:40   29.3    96    1.8    32      3.7   827.3   18.35       0    32.9   999.0
  36    5:50   29.3    96    1.2    55      4.5   827.3   18.35       0    32.9   999.0
  36    6:00   29.2    96    1.2    33      2.5   827.3   18.33       0    32.9   999.0
  36    6:10   29.0    96    1.3    19      3.1   827.2   18.35       0    32.9   999.0
  36    6:20   29.0    96    2.4    46      4.0   827.2   18.33       0    32.9   999.0
  36    6:30   29.0    96    1.5    11      3.4   827.3   18.33       0    32.9   999.0
  36    6:40   28.8    96    2.1    43      4.3   827.2   18.33       0    32.9   999.0
  36    6:50   28.6    96    1.1    30      3.6   827.2   18.35       0    32.9   999.0
  36    7:00   28.5    96    1.2    37      3.1   827.2   18.35       1    32.9   999.0
  36    7:10   28.4    96    1.6    33      2.8   827.2   18.35       3    32.9   999.0
  36    7:20   28.3    96    1.3    41      3.0   827.1   18.35      10    32.9   999.0
  36    7:30   28.4    95    0.9    28      2.1   827.1   18.35      24    32.9   999.0
  36    7:40   28.5    95    1.0    19      2.0   827.0   18.35      37    33.0   999.0
  36    7:50   28.8    95    1.3    40      3.1   827.0   18.33      46    33.0   999.0
  36    8:00   29.1    94    1.1    64      3.2   827.2   18.33      55    32.9   999.0
  36    8:10   29.6    94    1.5    35      2.9   827.2   18.33      68    32.9   999.0
  36    8:20   30.1    94    1.5    25      4.0   827.2   18.35      84    32.9   999.0
  36    8:30   30.5    93    1.1    49      2.6   827.3   18.35     105    32.9   999.0
  36    8:40   31.2    91    1.2    41      3.3   827.3   18.35     132    32.9   999.0
  36    8:50   31.9    90    1.2    48      2.8   827.4   18.35     163    32.9   999.0
  36    9:00   32.4    90    1.9    54      3.2   827.3   18.35     184    32.9   999.0
  36    9:10   32.7    89    1.1    36      2.9   827.2   18.35     203    32.9   999.0
  36    9:20   33.2    89    1.0    62      3.1   827.2   18.35     197    32.9   999.0
  36    9:30   34.3    86    0.9    52      2.9   827.2   18.35     191    33.0   999.0
  36    9:40   34.2    87    0.5    54      1.8   827.2   18.35     190    33.0   999.0
  36    9:50   34.4    87    0.8    51      1.8   827.3   18.35     160    33.0   999.0
  36   10:00   33.6    89    0.9    35      2.9   827.3   18.35     126    33.0   999.0
  36   10:10   33.7    89    1.4    32      2.9   827.1   18.35     146    33.0   999.0
  36   10:20   33.9    89    1.3    36      3.4   826.9   18.35     163    33.0   999.0
  36   10:30   34.4    88    1.6    32      3.7   826.6   18.35     230    33.0   999.0
  36   10:40   35.5    86    1.2    43      2.9   826.3   18.35     366    33.0   999.0
  36   10:50   37.2    82    1.1    46      2.1   826.1   18.35     433    33.0   999.0
  36   11:00   38.1    80    1.1    69      2.8   825.9   18.35     370    33.1   999.0
  36   11:10   37.8    81    0.4   103      1.8   825.7   18.35     364    33.1   999.0
  36   11:20   38.2    81    1.4    68      2.5   825.4   18.35     413    33.1   999.0
  36   11:30   38.4    81    1.6    60      3.0   824.9   18.35     478    33.1   999.0
  36   11:40   39.0    80    1.4    83      3.6   824.5   18.35     580    33.1   999.0
  36   11:50   40.1    75    1.6    55      8.8   823.9   18.35     625    33.1   999.0
  36   12:00   40.8    75    1.1   135      3.9   823.9   18.35     563    33.1   999.0
  36   12:10   40.3    76    1.7   166      4.5   823.9   18.35     514    33.1   999.0
  36   12:20   41.1    71    2.4   219      7.6   823.8   18.35     446    33.1   999.0
  36   12:30   41.0    69    2.2   164      6.9   823.5   18.35     477    33.2   999.0
  36   12:40   41.1    70    1.6   113      4.9   823.2   18.35     462    33.2   999.0
  36   12:50   40.4    73    1.4   150      4.3   823.1   18.33     456    33.2   999.0
  36   13:00   39.4    76    3.3   188     12.2   823.0   18.35     391    33.2   999.0
  36   13:10   40.4    69    3.2   241     11.5   822.9   18.35     471    33.2   999.0
  36   13:20   40.4    68    2.5   269      8.4   822.7   18.35     436    33.2   999.0
  36   13:30   40.5    69    2.5   262      7.1   822.5   18.35     454    33.2   999.0
  36   13:40   40.6    68    2.2   264      7.0   822.3   18.35     435    33.2   999.0
  36   13:50   40.0    70    2.3   242      5.8   822.2   18.35     296    33.2   999.0
  36   14:00   39.2    74    2.9   213      8.8   822.1   18.35     274    33.2   999.0
  36   14:10   38.9    73    2.2   224      5.9   821.9   18.33     241    33.2   999.0
  36   14:20   38.5    72    3.5   238     11.8   821.8   18.35     227    33.1   999.0
  36   14:30   38.8    76    1.4   195      4.9   821.7   18.35     229    33.1   999.0
  36   14:40   38.5    76    1.4   239      4.8   821.5   18.35     182    33.1   999.0
  36   14:50   38.1    76    1.9   218      4.5   821.3   18.35     189    33.1   999.0
  36   15:00   38.2    78    1.7   208      7.1   821.0   18.35     316    33.1   999.0
  36   15:10   39.4    71    2.6   256      6.5   820.9   18.35     373    33.1   999.0
  36   15:20   40.2    69    2.0   236      6.1   820.9   18.35     349    33.1   999.0
  36   15:30   40.9    68    2.6   244      6.7   820.9   18.35     354    33.1   999.0
  36   15:40   40.0    70    2.3   245      7.7   820.6   18.33     317    33.2   999.0
  36   15:50   39.7    71    2.7   239      8.4   820.4   18.35     289    33.1   999.0
  36   16:00   39.8    67    2.4   266      8.0   820.3   18.33     202    33.1   999.0
  36   16:10   37.9    75    1.6   204      6.0   820.3   18.35      87    33.1   999.0
  36   16:20   36.5    75    3.7   213      9.8   820.6   18.35      36    33.1   999.0
  36   16:30   35.7    77    2.9   239     12.9   820.9   18.35      49    33.1   999.0
  36   16:40   35.5    78    2.6   255      8.7   821.0   18.35      35    33.1   999.0
  36   16:50   35.4    79    3.9   260     11.6   821.0   18.35      27    33.1   999.0
  36   17:00   34.8    82    4.0   245     12.3   820.8   18.35      14    33.1   999.0
  36   17:10   35.1    79    3.3   280     10.0   820.5   18.33       8    33.1   999.0
  36   17:20   34.9    79    3.3   261      9.0   820.2   18.35       5    33.1   999.0
  36   17:30   34.8    78    3.7   282     14.8   820.0   18.35       2    33.1   999.0
  36   17:40   34.7    78    2.5   260      8.7   819.7   18.33       1    33.1   999.0
  36   17:50   34.3    80    1.5   267      4.8   819.4   18.35       0    33.1   999.0
  36   18:00   34.4    80    2.8   262      8.1   819.6   18.35       0    33.0   999.0
  36   18:10   34.2    81    3.2   263     10.6   819.5   18.33       0    33.0   999.0
  36   18:20   34.3    80    2.6   236      8.6   819.2   18.35       0    33.0   999.0
  36   18:30   33.4    81    5.0   278     15.3   819.1   18.35       0    33.0   999.0
  36   18:40   31.8    89    4.5   283     14.5   819.5   18.38       0    33.0   999.0
  36   18:50   31.0    94    2.4   276      6.0   819.5   18.38       0    33.1   999.0
  36   19:00   30.6    95    4.0   269     12.6   819.4   18.40       0    33.0   999.0
  36   19:10   30.3    96    4.0   292     11.9   818.6   18.42       0    33.0   999.0
  36   19:20   30.1    96    3.4   282      7.5   818.5   18.45       0    33.0   999.0
  36   19:30   30.1    96    2.5   271      6.9   818.5   18.50       0    33.0   999.0
  36   19:40   30.1    96    2.6   289     10.0   818.3   18.52       0    33.0   999.0
  36   19:50   29.8    96    2.9   288      9.7   818.1   18.55       0    33.0   999.0
  36   20:00   29.6    96    2.8   291      6.5   817.7   18.57       0    33.0   999.0
  36   20:10   29.6    97    3.0   282      6.9   817.6   18.60       0    33.0   999.0
  36   20:20   29.6    97    3.4   284     12.6   817.4   18.62       0    33.0   999.0
  36   20:30   29.7    97    2.6   276      7.7   817.5   18.65       0    33.0   999.0

Return to Onion Creek graphs page.


Western Regional Climate Center,wrcc@dri.edu